Extreme high temperature From: 16-07-2018 05:00 Until: 19:00 warning for: Extreme high temperature Level: Yellow info button
suomi:
Hellevaroitus: Lähivuorokauden aikana on odotettavissa tukalaa hellettä.

svenska:
Varning för värmebölja: Under det närmaste dygnet är den svåra hettan att vänta.

english:
Heat wave warning: Warm weather is expected during the coming 24 hours. 


Thunder radar more information blitzortung!


Löydät sääaseman tiedot myös:

European Weather Network

Finland Weather Exchange

Weather Underground

AWEKAS



Weather Underground säähistoriasivu

Päivittäin yhteenveto Maaliskuu 25, 2017 Yksiköt:  Englantilaiset    Metriset   Molemmat
« Edellinen Päivä
Seuraava Päivä »
Päivittäin Viikoittain Kuukausittain Vuosittain Mukautettu
  Korkea: Matala: Keskiarvo:
Lämpötila: TemperatureC °F -0.4 °F 2.8 °F
Kastepiste: DewpointC °F -2.8 °F -0.9 °F
Kosteus: Humidity % 52 % 77 %
Tuulen nopeus: WindSpeedKMH mph 0.0 mph 3.2 mph
Tuulenpuuska: WindSpeedGustKMH mph - -
Tuuli:- - West
Ilmanpaine: PressurehPa in 1009.0 in -
Sade: 0.0 in    
Historical Graphs
 
 
Taulukkotiedot Maaliskuu 25, 2017
Aika Lämpötila Kastepiste Ilmanpaine Tuuli Tuulen nopeus Tuulenpuuska Kosteus Sademäärä (tunneittain)
TemperatureC °F DewpointC °F PressurehPa in Calm     Humidity % HourlyPrecipMM in
00:00 -0.4 °F -1.5 °F 1012.4 in SSW 4.8 mph 12.9 mph 92 % 0.0 in
00:15 -0.4 °F -1.4 °F 1012.4 in SSW 4.8 mph 14.5 mph 93 % 0.0 in
00:45 -0.3 °F -1.1 °F 1012.1 in SSW 3.2 mph 8.0 mph 94 % 0.0 in
01:00 -0.2 °F -1.0 °F 1011.7 in SSW 3.2 mph 14.5 mph 94 % 0.0 in
01:15 -0.1 °F -1.0 °F 1011.4 in Calm   8.0 mph 94 % 0.0 in
01:30 0.0 °F -0.9 °F 1011.4 in South 1.6 mph 8.0 mph 94 % 0.0 in
01:45 0.1 °F -0.6 °F 1011.1 in SSW 3.2 mph 6.4 mph 95 % 0.0 in
02:00 0.3 °F -0.4 °F 1011.1 in SSW 1.6 mph 8.0 mph 95 % 0.0 in
02:15 0.6 °F -0.2 °F 1010.7 in SSW 3.2 mph 6.4 mph 95 % 0.0 in
02:30 0.7 °F 0.0 °F 1010.7 in SSW 3.2 mph 9.7 mph 95 % 0.0 in
02:45 0.8 °F 0.1 °F 1010.4 in SSW 3.2 mph 8.0 mph 95 % 0.0 in
03:00 0.9 °F 0.2 °F 1010.4 in SW 3.2 mph 11.3 mph 95 % 0.0 in
03:15 0.9 °F 0.2 °F 1010.4 in SW 4.8 mph 9.7 mph 95 % 0.0 in
03:30 0.9 °F 0.2 °F 1010.0 in WSW 3.2 mph 11.3 mph 95 % 0.0 in
03:45 1.1 °F 0.3 °F 1010.0 in SSW 3.2 mph 8.0 mph 95 % 0.0 in
04:00 1.1 °F 0.3 °F 1010.0 in SSW 3.2 mph 9.7 mph 95 % 0.0 in
04:15 1.1 °F 0.3 °F 1010.0 in SSW 1.6 mph 4.8 mph 95 % 0.0 in
04:30 1.1 °F 0.3 °F 1009.7 in South 1.6 mph 8.0 mph 95 % 0.0 in
04:45 1.1 °F 0.3 °F 1009.7 in SW 1.6 mph 8.0 mph 95 % 0.0 in
05:00 1.1 °F 0.3 °F 1009.7 in SW 3.2 mph 9.7 mph 95 % 0.0 in
05:15 1.0 °F 0.3 °F 1009.4 in SW 3.2 mph 8.0 mph 95 % 0.0 in
05:30 0.9 °F 0.2 °F 1009.4 in West 1.6 mph 9.7 mph 95 % 0.0 in
05:45 0.8 °F -0.1 °F 1009.0 in Calm   9.7 mph 94 % 0.0 in
06:00 0.8 °F 0.1 °F 1009.0 in SW 3.2 mph 9.7 mph 95 % 0.0 in
06:15 0.9 °F 0.2 °F 1009.0 in SW 1.6 mph 6.4 mph 95 % 0.0 in
06:30 1.1 °F 0.3 °F 1009.4 in WNW 1.6 mph 9.7 mph 94 % 0.0 in
06:45 1.3 °F 0.4 °F 1009.4 in Calm   6.4 mph 94 % 0.0 in
07:00 1.3 °F 0.3 °F 1009.0 in Calm   6.4 mph 93 % 0.0 in
07:15 1.3 °F 0.3 °F 1009.0 in Calm   4.8 mph 93 % 0.0 in
07:30 1.4 °F 0.4 °F 1009.4 in West 1.6 mph 11.3 mph 93 % 0.0 in
07:45 1.4 °F 0.4 °F 1009.4 in West 1.6 mph 8.0 mph 93 % 0.0 in
08:00 1.6 °F 0.4 °F 1009.7 in NW 4.8 mph 12.9 mph 92 % 0.0 in
08:15 1.7 °F 0.4 °F 1009.7 in NW 4.8 mph 9.7 mph 91 % 0.0 in
08:30 1.9 °F 0.4 °F 1010.0 in NW 3.2 mph 11.3 mph 90 % 0.0 in
08:45 2.2 °F 0.4 °F 1010.0 in NW 6.4 mph 19.3 mph 88 % 0.0 in
09:00 2.3 °F 0.4 °F 1010.4 in NW 6.4 mph 16.1 mph 87 % 0.0 in
09:15 2.6 °F 0.3 °F 1010.4 in NW 9.7 mph 17.7 mph 85 % 0.0 in
09:30 2.7 °F 0.3 °F 1010.7 in NW 6.4 mph 17.7 mph 84 % 0.0 in
09:45 3.0 °F 0.4 °F 1010.7 in NW 9.7 mph 16.1 mph 83 % 0.0 in
10:00 3.3 °F 0.2 °F 1010.7 in NW 8.0 mph 16.1 mph 80 % 0.0 in
10:15 3.7 °F 0.2 °F 1010.7 in NW 4.8 mph 14.5 mph 78 % 0.0 in
10:30 4.1 °F 0.2 °F 1011.1 in NNW 4.8 mph 12.9 mph 76 % 0.0 in
10:45 4.2 °F 0.2 °F 1011.1 in NW 6.4 mph 14.5 mph 75 % 0.0 in
11:15 4.6 °F 0.3 °F 1011.7 in NW 8.0 mph 19.3 mph 74 % 0.0 in
11:30 5.0 °F -0.4 °F 1011.7 in NW 6.4 mph 19.3 mph 68 % 0.0 in
11:45 4.8 °F -0.4 °F 1012.1 in NNW 4.8 mph 11.3 mph 69 % 0.0 in
12:00 5.2 °F -0.6 °F 1012.1 in North 3.2 mph 8.0 mph 66 % 0.0 in
12:15 5.4 °F -0.7 °F 1012.1 in NW 4.8 mph 17.7 mph 65 % 0.0 in
12:30 5.3 °F -0.8 °F 1012.1 in NW 6.4 mph 19.3 mph 65 % 0.0 in
12:45 5.6 °F -0.3 °F 1012.1 in NNW 6.4 mph 14.5 mph 66 % 0.0 in
13:00 5.9 °F -0.6 °F 1012.4 in NW 4.8 mph 14.5 mph 63 % 0.0 in
13:15 6.1 °F -0.6 °F 1012.4 in NW 6.4 mph 17.7 mph 62 % 0.0 in
13:30 6.2 °F -1.0 °F 1012.8 in NNW 4.8 mph 12.9 mph 60 % 0.0 in
13:45 6.3 °F -1.2 °F 1012.4 in NW 6.4 mph 16.1 mph 59 % 0.0 in
14:00 6.4 °F -1.3 °F 1012.8 in NNW 6.4 mph 19.3 mph 58 % 0.0 in
14:15 6.5 °F -1.4 °F 1012.8 in NW 6.4 mph 22.5 mph 57 % 0.0 in
14:30 6.7 °F -1.5 °F 1012.8 in NW 4.8 mph 16.1 mph 56 % 0.0 in
14:45 6.7 °F -1.5 °F 1013.1 in NNW 6.4 mph 17.7 mph 56 % 0.0 in
15:00 6.8 °F -2.1 °F 1013.1 in NNW 6.4 mph 24.1 mph 53 % 0.0 in
15:15 7.0 °F -2.2 °F 1013.4 in NW 6.4 mph 14.5 mph 52 % 0.0 in
15:30 6.8 °F -2.4 °F 1013.4 in NW 8.0 mph 17.7 mph 52 % 0.0 in
15:45 7.1 °F -1.8 °F 1013.4 in NNW 4.8 mph 9.7 mph 53 % 0.0 in
16:00 7.0 °F -2.2 °F 1013.8 in NNW 4.8 mph 14.5 mph 52 % 0.0 in
16:15 7.0 °F -1.9 °F 1013.8 in NNW 3.2 mph 12.9 mph 53 % 0.0 in
16:30 6.7 °F -2.0 °F 1013.8 in NW 6.4 mph 11.3 mph 54 % 0.0 in
16:45 6.4 °F -2.3 °F 1014.1 in NW 3.2 mph 9.7 mph 54 % 0.0 in
17:00 6.4 °F -2.3 °F 1014.4 in NW 3.2 mph 12.9 mph 54 % 0.0 in
17:15 6.3 °F -1.9 °F 1014.1 in NNW 1.6 mph 6.4 mph 56 % 0.0 in
17:30 6.2 °F -1.9 °F 1014.1 in NW 3.2 mph 8.0 mph 56 % 0.0 in
17:45 6.2 °F -1.7 °F 1014.1 in WNW 3.2 mph 9.7 mph 57 % 0.0 in
18:00 6.0 °F -1.6 °F 1014.4 in WNW 1.6 mph 6.4 mph 58 % 0.0 in
18:15 5.7 °F -1.4 °F 1014.4 in NW 1.6 mph 6.4 mph 60 % 0.0 in
18:30 5.4 °F -1.5 °F 1014.8 in WNW 1.6 mph 4.8 mph 61 % 0.0 in
18:45 4.9 °F -1.8 °F 1014.8 in Calm   3.2 mph 62 % 0.0 in
19:00 4.2 °F -1.8 °F 1014.8 in Calm     65 % 0.0 in
19:15 3.2 °F -2.2 °F 1014.8 in Calm     68 % 0.0 in
19:30 2.5 °F -2.4 °F 1014.8 in Calm     70 % 0.0 in
19:45 1.8 °F -2.5 °F 1014.8 in Calm   1.6 mph 73 % 0.0 in
20:00 1.2 °F -2.8 °F 1014.8 in Calm     75 % 0.0 in
20:15 0.8 °F -2.7 °F 1014.8 in Calm     77 % 0.0 in
20:30 1.0 °F -2.4 °F 1014.8 in Calm   1.6 mph 78 % 0.0 in
20:45 1.0 °F -2.6 °F 1014.8 in Calm     77 % 0.0 in
21:00 0.7 °F -2.5 °F 1015.1 in Calm   3.2 mph 79 % 0.0 in
21:15 0.7 °F -2.3 °F 1015.1 in Calm   4.8 mph 80 % 0.0 in
21:30 0.9 °F -2.1 °F 1015.1 in Calm   4.8 mph 80 % 0.0 in
21:45 0.8 °F -2.3 °F 1015.1 in Calm     80 % 0.0 in
22:00 0.3 °F -2.5 °F 1015.1 in Calm   3.2 mph 81 % 0.0 in
22:15 -0.1 °F -2.6 °F 1014.8 in Calm   4.8 mph 83 % 0.0 in
22:30 0.1 °F -2.3 °F 1015.1 in West 1.6 mph 4.8 mph 84 % 0.0 in
23:00 0.2 °F -2.2 °F 1014.8 in SW 3.2 mph 6.4 mph 84 % 0.0 in
23:15 0.2 °F -2.2 °F 1014.8 in SW 1.6 mph 4.8 mph 84 % 0.0 in
23:30 0.2 °F -2.1 °F 1014.8 in SW 1.6 mph 4.8 mph 85 % 0.0 in
23:45 0.2 °F -2.1 °F 1014.4 in SW 3.2 mph 8.0 mph 85 % 0.0 in
Esan sääasema
Terveisin Weather Underground - 2.75 mb

Alkuperäinen skripti  Jim McMurry - jmcmurry@mwt.net Sovitettu myös templatelle  Wim van der Kuil - Leuven-Template.eu

Laitteet joita käytämme:

Sääasema
Davis VP2

Sääasemaohjelma
Cumulus

Sääaseman tietokone
Asus EeePC

Palveluntarjoaja
Suncomet

Davis VP2

Cumulus

Asus EeePC

Suncomet